createdAt,value
2019-03-20T00:02:26.361Z,20.55
2019-03-20T00:06:31.175Z,17.45
2019-03-20T00:10:36.345Z,13.15
2019-03-20T00:14:41.428Z,14.07
2019-03-20T00:18:46.230Z,11.28
2019-03-20T00:22:51.419Z,14.85
2019-03-20T00:26:56.239Z,9.38
2019-03-20T00:31:01.948Z,8.45
2019-03-20T00:35:06.928Z,10.50
2019-03-20T00:39:11.681Z,13.08
2019-03-20T00:43:16.633Z,14.30
2019-03-20T00:47:22.025Z,12.43
2019-03-20T00:51:26.887Z,11.80
2019-03-20T00:55:31.729Z,18.27
2019-03-20T00:59:37.705Z,12.15
2019-03-20T01:03:42.702Z,11.50
2019-03-20T01:07:50.712Z,9.10
2019-03-20T01:11:55.781Z,11.20
2019-03-20T01:16:00.728Z,9.55
2019-03-20T01:20:06.272Z,13.18
2019-03-20T01:24:11.204Z,13.58
2019-03-20T01:28:16.011Z,14.00
2019-03-20T01:32:20.877Z,8.40
2019-03-20T01:36:25.684Z,11.10
2019-03-20T01:40:30.569Z,12.25
2019-03-20T01:44:35.420Z,11.60
2019-03-20T01:48:40.219Z,7.35
2019-03-20T01:52:46.405Z,11.95
2019-03-20T01:56:51.314Z,18.77
2019-03-20T02:00:57.360Z,13.15
2019-03-20T02:05:02.163Z,9.35
2019-03-20T02:09:07.779Z,15.78
2019-03-20T02:13:12.759Z,12.88
2019-03-20T02:17:17.572Z,10.53
2019-03-20T02:21:22.701Z,9.45
2019-03-20T02:25:27.504Z,17.25
2019-03-20T02:29:32.383Z,10.03
2019-03-20T02:33:37.409Z,12.03
2019-03-20T02:37:42.294Z,14.15
2019-03-20T02:41:47.097Z,12.23
2019-03-20T02:45:51.905Z,12.33
2019-03-20T02:49:56.728Z,15.45
2019-03-20T02:54:01.744Z,13.83
2019-03-20T02:58:06.677Z,10.95
2019-03-20T03:02:11.740Z,12.98
2019-03-20T03:06:16.628Z,8.28
2019-03-20T03:10:21.582Z,12.15
2019-03-20T03:14:26.644Z,10.15
2019-03-20T03:18:31.457Z,11.70
2019-03-20T03:22:36.586Z,9.30
2019-03-20T03:26:41.388Z,11.93
2019-03-20T03:30:47.264Z,11.33
2019-03-20T03:34:52.346Z,10.50
2019-03-20T03:38:57.271Z,10.68
2019-03-20T03:43:02.292Z,11.43
2019-03-20T03:47:07.205Z,14.98
2019-03-20T03:51:12.167Z,10.75
2019-03-20T03:55:17.001Z,12.68
2019-03-20T03:59:21.900Z,9.95
2019-03-20T04:03:28.017Z,12.18
2019-03-20T04:07:32.743Z,13.53
2019-03-20T04:11:37.650Z,11.75
2019-03-20T04:15:42.555Z,10.35
2019-03-20T04:19:47.378Z,12.53
2019-03-20T04:23:52.403Z,9.85
2019-03-20T04:27:59.149Z,10.80
2019-03-20T04:32:04.084Z,12.30
2019-03-20T04:36:08.915Z,12.40
2019-03-20T04:40:14.168Z,11.03
2019-03-20T04:44:19.076Z,10.95
2019-03-20T04:48:23.896Z,9.20
2019-03-20T04:52:28.848Z,10.68
2019-03-20T04:56:33.580Z,8.38
2019-03-20T05:00:38.290Z,14.38
2019-03-20T05:04:43.288Z,13.88
2019-03-20T05:08:48.218Z,15.10
2019-03-20T05:12:53.323Z,12.88
2019-03-20T05:16:58.141Z,11.40
2019-03-20T05:21:02.975Z,15.65
2019-03-20T05:25:07.819Z,12.70
2019-03-20T05:29:12.704Z,14.20
2019-03-20T05:33:17.628Z,10.50
2019-03-20T05:37:22.428Z,11.25
2019-03-20T05:41:27.569Z,14.43
2019-03-20T05:45:33.387Z,11.30
2019-03-20T05:49:38.288Z,10.40
2019-03-20T05:53:43.290Z,12.40
2019-03-20T05:57:49.084Z,13.60
2019-03-20T06:01:57.020Z,10.18
2019-03-20T06:06:01.811Z,18.07
2019-03-20T06:10:09.544Z,12.85
2019-03-20T06:14:14.456Z,13.20
2019-03-20T06:18:19.192Z,10.13
2019-03-20T06:22:24.907Z,13.22
2019-03-20T06:26:29.780Z,17.95
2019-03-20T06:30:34.661Z,16.65
2019-03-20T06:34:40.670Z,18.82
2019-03-20T06:38:45.514Z,14.40
2019-03-20T06:42:50.629Z,10.38
2019-03-20T06:46:57.734Z,9.40
2019-03-20T06:51:02.940Z,12.80
2019-03-20T06:55:08.301Z,9.63
2019-03-20T07:00:09.215Z,11.50
2019-03-20T07:04:28.632Z,13.83
2019-03-20T07:08:40.935Z,13.60
2019-03-20T07:16:49.877Z,12.78
2019-03-20T07:20:55.094Z,14.60
2019-03-20T07:24:59.984Z,14.68
2019-03-20T07:29:06.058Z,19.25
2019-03-20T07:33:11.000Z,15.03
2019-03-20T07:37:15.808Z,16.17
2019-03-20T07:41:20.595Z,16.60
2019-03-20T07:45:25.403Z,14.50
2019-03-20T07:49:30.229Z,18.15
2019-03-20T07:53:35.047Z,13.88
2019-03-20T07:57:39.788Z,14.75
2019-03-20T08:01:44.587Z,14.40
2019-03-20T08:05:49.480Z,14.33
2019-03-20T08:09:54.213Z,12.98
2019-03-20T08:14:00.238Z,10.63
2019-03-20T08:18:05.858Z,11.38
2019-03-20T08:22:10.903Z,12.58
2019-03-20T08:26:15.793Z,9.90
2019-03-20T08:30:20.595Z,10.90
2019-03-20T08:34:25.359Z,14.63
2019-03-20T08:38:30.293Z,11.12
2019-03-20T08:51:01.260Z,8.63
2019-03-20T08:55:06.529Z,7.22
2019-03-20T08:59:12.627Z,6.60
2019-03-20T09:03:17.757Z,8.13
2019-03-20T09:07:22.569Z,7.83
2019-03-20T09:11:28.760Z,8.48
2019-03-20T09:15:34.618Z,13.45
2019-03-20T09:19:39.425Z,6.08
2019-03-20T09:23:44.304Z,9.83
2019-03-20T09:27:49.472Z,8.30
2019-03-20T09:31:54.363Z,4.22
2019-03-20T09:35:59.106Z,5.85
2019-03-20T09:40:04.612Z,5.40
2019-03-20T09:44:09.435Z,6.78
2019-03-20T09:48:14.301Z,4.60
2019-03-20T09:52:19.044Z,6.03
2019-03-20T09:56:23.852Z,5.60
2019-03-20T10:00:28.738Z,5.72
2019-03-20T10:04:33.552Z,9.23
2019-03-20T10:08:38.361Z,8.53
2019-03-20T10:12:43.276Z,6.55
2019-03-20T10:16:48.056Z,7.15
2019-03-20T10:20:52.992Z,5.28
2019-03-20T10:24:57.729Z,6.15
2019-03-20T10:29:02.548Z,9.10
2019-03-20T10:33:07.357Z,4.40
2019-03-20T10:37:12.296Z,5.17
2019-03-20T10:41:17.289Z,5.08
2019-03-20T10:45:22.350Z,7.33
2019-03-20T10:49:27.169Z,6.10
2019-03-20T10:53:33.569Z,10.93
2019-03-20T10:57:38.607Z,9.35
2019-03-20T11:01:43.557Z,4.40
2019-03-20T11:05:48.404Z,8.20
2019-03-20T11:09:53.264Z,6.95
2019-03-20T11:13:58.193Z,7.45
2019-03-20T11:18:03.130Z,6.55
2019-03-20T11:22:18.314Z,6.15
2019-03-20T11:26:14.786Z,7.35
2019-03-20T11:30:23.661Z,11.88
2019-03-20T11:34:28.590Z,11.80
2019-03-20T11:38:33.419Z,37.60
2019-03-20T11:42:40.732Z,7.97
2019-03-20T11:46:44.960Z,6.45
2019-03-20T11:50:49.811Z,7.95
2019-03-20T11:54:54.668Z,5.72
2019-03-20T11:58:59.516Z,7.80
2019-03-20T12:03:04.859Z,6.75
2019-03-20T12:07:12.104Z,7.45
2019-03-20T12:11:17.043Z,8.13
2019-03-20T12:15:22.011Z,6.97
2019-03-20T12:19:26.972Z,10.25
2019-03-20T12:23:33.780Z,5.92
2019-03-20T12:27:38.440Z,6.20
2019-03-20T12:31:43.363Z,9.45
2019-03-20T12:35:48.384Z,10.68
2019-03-20T12:39:53.686Z,7.87
2019-03-20T12:43:58.878Z,6.17
2019-03-20T12:48:04.235Z,5.87
2019-03-20T12:52:09.156Z,8.58
2019-03-20T12:56:14.011Z,7.50
2019-03-20T13:00:20.975Z,8.83
2019-03-20T13:04:25.934Z,7.05
2019-03-20T13:08:30.858Z,5.42
2019-03-20T13:12:35.751Z,6.47
2019-03-20T13:16:40.672Z,7.15
2019-03-20T13:20:45.587Z,9.78
2019-03-20T13:24:50.437Z,13.60
2019-03-20T13:28:55.381Z,8.78
2019-03-20T13:33:00.312Z,7.15
2019-03-20T13:37:05.251Z,6.15
2019-03-20T13:41:10.109Z,4.58
2019-03-20T13:45:15.790Z,7.53
2019-03-20T13:49:20.708Z,6.08
2019-03-20T13:53:27.979Z,7.92
2019-03-20T13:57:32.785Z,7.47
2019-03-20T14:01:37.957Z,10.53
2019-03-20T14:05:42.895Z,6.12
2019-03-20T14:09:47.722Z,7.10
2019-03-20T14:13:52.688Z,6.55
2019-03-20T14:17:57.531Z,8.03
2019-03-20T14:22:02.465Z,5.95
2019-03-20T14:26:07.958Z,8.88
2019-03-20T14:30:16.170Z,8.08
2019-03-20T14:34:21.052Z,6.08
2019-03-20T14:38:25.828Z,8.18
2019-03-20T14:42:30.953Z,5.10
2019-03-20T14:46:35.878Z,5.75
2019-03-20T14:50:40.749Z,7.45
2019-03-20T14:54:45.698Z,6.67
2019-03-20T14:58:50.678Z,7.80
2019-03-20T15:02:56.338Z,8.30
2019-03-20T15:07:01.222Z,6.45
2019-03-20T15:11:06.153Z,6.08
2019-03-20T15:15:21.221Z,6.40
2019-03-20T15:19:26.068Z,5.35
2019-03-20T15:23:31.024Z,10.25
2019-03-20T15:27:35.941Z,7.08
2019-03-20T15:31:41.069Z,7.42
2019-03-20T15:35:45.896Z,10.75
2019-03-20T15:39:50.868Z,8.78
2019-03-20T15:44:02.445Z,7.67
2019-03-20T15:48:02.388Z,9.08
2019-03-20T15:52:07.284Z,6.42
2019-03-20T15:56:12.294Z,8.65
2019-03-20T16:00:18.346Z,5.87
2019-03-20T16:04:23.269Z,6.67
2019-03-20T16:08:28.223Z,9.23
2019-03-20T16:12:33.088Z,8.83
2019-03-20T16:16:38.006Z,6.92
2019-03-20T16:20:42.831Z,4.28
2019-03-20T16:24:47.714Z,5.65
2019-03-20T16:28:53.654Z,9.95
2019-03-20T16:32:59.676Z,7.08
2019-03-20T16:37:04.694Z,8.68
2019-03-20T16:41:16.735Z,9.90
2019-03-20T16:45:19.572Z,8.05
2019-03-20T16:49:24.404Z,5.55
2019-03-20T16:53:29.330Z,9.08
2019-03-20T16:57:34.183Z,9.95
2019-03-20T17:01:39.117Z,7.95
2019-03-20T17:05:44.035Z,7.08
2019-03-20T17:09:48.814Z,6.90
2019-03-20T17:13:53.748Z,7.78
2019-03-20T17:17:59.071Z,9.30
2019-03-20T17:22:04.008Z,8.68
2019-03-20T17:26:08.909Z,9.13
2019-03-20T17:30:19.411Z,4.67
2019-03-20T17:34:24.394Z,7.85
2019-03-20T17:38:29.340Z,10.18
2019-03-20T17:42:34.367Z,8.43
2019-03-20T17:46:39.400Z,6.35
2019-03-20T17:50:44.345Z,7.75
2019-03-20T17:54:49.282Z,8.85
2019-03-20T17:58:54.145Z,6.33
2019-03-20T18:02:58.930Z,7.45
2019-03-20T18:07:05.012Z,7.42
2019-03-20T18:11:09.953Z,7.72
2019-03-20T18:15:14.904Z,10.88
2019-03-20T18:19:19.788Z,12.68
2019-03-20T18:23:24.680Z,9.63
2019-03-20T18:27:29.620Z,9.18
2019-03-20T18:31:45.492Z,8.98
2019-03-20T18:35:42.279Z,12.50
2019-03-20T18:39:47.327Z,11.10
2019-03-20T18:43:52.291Z,16.67
2019-03-20T18:47:57.251Z,10.65
2019-03-20T18:52:02.217Z,10.82
2019-03-20T18:56:07.167Z,11.35
2019-03-20T19:00:15.024Z,11.90
2019-03-20T19:04:19.916Z,13.32
2019-03-20T19:08:24.770Z,12.18
2019-03-20T19:12:29.937Z,12.63
2019-03-20T19:16:34.741Z,18.50
2019-03-20T19:20:39.566Z,23.27
2019-03-20T19:24:44.454Z,11.95
2019-03-20T19:28:49.275Z,14.20
2019-03-20T19:32:54.386Z,14.35
2019-03-20T19:36:59.300Z,18.92
2019-03-20T19:41:04.275Z,23.57
2019-03-20T19:45:09.912Z,19.65
2019-03-20T19:49:14.715Z,17.42
2019-03-20T19:53:19.840Z,13.85
2019-03-20T19:57:25.070Z,18.23
2019-03-20T20:01:31.644Z,12.23
2019-03-20T20:05:36.571Z,15.40
2019-03-20T20:09:41.468Z,11.33
2019-03-20T20:13:46.960Z,12.28
2019-03-20T20:17:51.960Z,14.83
2019-03-20T20:21:56.965Z,12.35
2019-03-20T20:26:01.982Z,11.05
2019-03-20T20:30:07.852Z,10.55
2019-03-20T20:34:13.223Z,11.05
2019-03-20T20:38:18.073Z,10.70
2019-03-20T20:42:23.524Z,9.95
2019-03-20T20:46:28.667Z,8.30
2019-03-20T20:50:34.892Z,13.18
2019-03-20T20:54:39.843Z,11.57
2019-03-20T20:58:44.919Z,15.05
2019-03-20T21:02:49.932Z,10.35
2019-03-20T21:06:58.010Z,9.38
2019-03-20T21:11:02.914Z,34.40
2019-03-20T21:15:17.197Z,14.68
2019-03-20T21:19:39.936Z,11.95
2019-03-20T21:24:21.164Z,9.07
2019-03-20T21:29:15.333Z,13.53
2019-03-20T21:34:13.621Z,11.90
2019-03-20T21:38:19.425Z,13.08
2019-03-20T21:43:06.842Z,15.55
2019-03-20T21:47:33.264Z,12.78
2019-03-20T21:51:38.936Z,12.82
2019-03-20T21:56:24.117Z,11.93
2019-03-20T22:01:21.249Z,13.93
2019-03-20T22:05:40.740Z,19.92
2019-03-20T22:10:57.369Z,11.70
2019-03-20T22:15:16.512Z,14.98
2019-03-20T22:19:55.736Z,11.85
2019-03-20T22:24:26.209Z,18.95
2019-03-20T22:29:12.253Z,17.40
2019-03-20T22:33:53.277Z,20.60
2019-03-20T22:38:00.514Z,20.68
2019-03-20T22:42:33.014Z,18.85
2019-03-20T22:51:30.506Z,19.90
2019-03-20T22:55:53.906Z,18.52
2019-03-20T22:59:59.232Z,17.35
2019-03-20T23:04:27.549Z,17.10
2019-03-20T23:08:33.017Z,17.27
2019-03-20T23:12:38.565Z,21.05
2019-03-20T23:16:43.908Z,17.07
2019-03-20T23:20:49.463Z,20.82
2019-03-20T23:24:54.889Z,17.37
2019-03-20T23:29:00.167Z,18.65
2019-03-20T23:33:05.885Z,18.60
2019-03-20T23:37:11.252Z,17.35
2019-03-20T23:41:16.803Z,20.02
2019-03-20T23:45:22.167Z,17.42
2019-03-20T23:49:27.607Z,17.15
2019-03-20T23:53:33.453Z,21.27
2019-03-20T23:57:38.888Z,17.37
